Altoona, Wisconsin
Current Conditions -  °F | °C
As of 10:56 PM on Wednesday 17 Dec 2014 (Local Time) from KEAU Reporting Station
Overcast Overcast  
Wind Chill: 12°   Ceiling: 1700
Heat Index: 19°   Visibility: 10mi
Dew Point: 12°   Wind: 5mph
Humidity: 74%   Direction: 290°WNW
Pressure: 30.31"   Gusts: NA
Location:  44.81°N, 91.43°W
Report Text: KEAU 180456Z AUTO 29004KT 10SM OVC017 M07/M11 A3031 RMK AO2 SLP281 T10721111
Loading
Personal Weather Stations






























Interactive Weather Map New forecast layout! Learn more

10-Day Weather Forecast

Advertisements
Track Severe Weather on mobile